KPUC/PUC METAR and TAF weather

Enter ICAO airport designator
Station Type Date Time Source
KPUC METAR 2019/06/18 14:53 UTC NOAA

KPUC 181453Z AUTO 00000KT 10SM CLR 16/09 A3018 RMK AO2 SLP169 T01610094 51010 $


Station Type Date Time Source
KPUC Decoded METAR 2019/06/18 14:53 UTC NOAA

PRICE CARBON COUNTY AIRPORT, UT, United States (KPUC) 39-37N 110-45W 2091M
Jun 18, 2019 - 10:53 AM EDT / 2019.06.18 1453 UTC
Wind: Calm:0
Visibility: 10 mile(s):0
Sky conditions: clear
Temperature: 61.0 F (16.1 C)
Dew Point: 48.9 F (9.4 C)
Relative Humidity: 64%
Pressure (altimeter): 30.18 in. Hg (1022 hPa)
Pressure tendency: 0.03 inches (1.0 hPa) higher than three hours ago
ob: KPUC 181453Z AUTO 00000KT 10SM CLR 16/09 A3018 RMK AO2 SLP169 T01610094 51010
cycle: 15

Station Type Date Time Source
KPUC TAF UTC NOAA

Error!

Example: see airport list